sensor_id;sensor_type;location;lat;lon;timestamp;P1;durP1;ratioP1;P2;durP2;ratioP2
20365;SDS011;10341;49.894;8.822;2024-03-17T00:05:02;7.43;;;2.40;;
20365;SDS011;10341;49.894;8.822;2024-03-17T00:10:21;5.18;;;3.45;;
20365;SDS011;10341;49.894;8.822;2024-03-17T00:15:40;4.35;;;3.10;;
20365;SDS011;10341;49.894;8.822;2024-03-17T00:21:00;6.45;;;3.17;;
20365;SDS011;10341;49.894;8.822;2024-03-17T00:26:21;4.75;;;2.78;;
20365;SDS011;10341;49.894;8.822;2024-03-17T00:31:41;3.75;;;2.75;;
20365;SDS011;10341;49.894;8.822;2024-03-17T00:42:20;2.70;;;1.87;;
20365;SDS011;10341;49.894;8.822;2024-03-17T00:47:40;3.92;;;2.90;;
20365;SDS011;10341;49.894;8.822;2024-03-17T00:52:59;5.50;;;2.72;;
20365;SDS011;10341;49.894;8.822;2024-03-17T00:58:22;4.43;;;3.00;;
20365;SDS011;10341;49.894;8.822;2024-03-17T01:03:41;4.93;;;2.87;;
20365;SDS011;10341;49.894;8.822;2024-03-17T01:09:00;4.63;;;3.13;;
20365;SDS011;10341;49.894;8.822;2024-03-17T01:14:19;6.17;;;4.00;;
20365;SDS011;10341;49.894;8.822;2024-03-17T01:19:39;5.43;;;3.35;;
20365;SDS011;10341;49.894;8.822;2024-03-17T01:24:58;4.65;;;2.85;;
20365;SDS011;10341;49.894;8.822;2024-03-17T01:30:17;4.50;;;3.33;;
20365;SDS011;10341;49.894;8.822;2024-03-17T01:35:38;5.95;;;2.88;;
20365;SDS011;10341;49.894;8.822;2024-03-17T01:46:17;5.65;;;3.25;;
20365;SDS011;10341;49.894;8.822;2024-03-17T01:56:56;3.97;;;3.22;;
20365;SDS011;10341;49.894;8.822;2024-03-17T02:07:36;7.38;;;3.53;;
20365;SDS011;10341;49.894;8.822;2024-03-17T02:18:15;5.05;;;3.53;;
20365;SDS011;10341;49.894;8.822;2024-03-17T02:28:54;7.60;;;3.67;;
20365;SDS011;10341;49.894;8.822;2024-03-17T02:34:13;4.55;;;3.78;;
20365;SDS011;10341;49.894;8.822;2024-03-17T02:39:32;6.63;;;3.78;;
20365;SDS011;10341;49.894;8.822;2024-03-17T02:44:53;6.45;;;3.90;;
20365;SDS011;10341;49.894;8.822;2024-03-17T02:50:12;7.32;;;3.63;;
20365;SDS011;10341;49.894;8.822;2024-03-17T02:55:32;4.57;;;3.40;;
20365;SDS011;10341;49.894;8.822;2024-03-17T03:00:51;5.00;;;3.60;;
20365;SDS011;10341;49.894;8.822;2024-03-17T03:06:10;7.60;;;4.10;;
20365;SDS011;10341;49.894;8.822;2024-03-17T03:11:31;4.88;;;3.80;;
20365;SDS011;10341;49.894;8.822;2024-03-17T03:16:51;4.55;;;3.53;;
20365;SDS011;10341;49.894;8.822;2024-03-17T03:27:30;4.53;;;3.13;;
20365;SDS011;10341;49.894;8.822;2024-03-17T03:38:08;5.05;;;3.75;;
20365;SDS011;10341;49.894;8.822;2024-03-17T03:43:28;6.32;;;3.85;;
20365;SDS011;10341;49.894;8.822;2024-03-17T03:48:48;6.30;;;4.30;;
20365;SDS011;10341;49.894;8.822;2024-03-17T03:54:07;8.15;;;4.40;;
20365;SDS011;10341;49.894;8.822;2024-03-17T03:59:26;6.80;;;4.38;;
20365;SDS011;10341;49.894;8.822;2024-03-17T04:10:06;9.68;;;4.75;;
20365;SDS011;10341;49.894;8.822;2024-03-17T04:15:26;9.48;;;4.68;;
20365;SDS011;10341;49.894;8.822;2024-03-17T04:26:05;7.65;;;4.20;;
20365;SDS011;10341;49.894;8.822;2024-03-17T04:31:26;6.80;;;4.57;;
20365;SDS011;10341;49.894;8.822;2024-03-17T04:36:46;6.80;;;4.55;;
20365;SDS011;10341;49.894;8.822;2024-03-17T04:47:28;7.82;;;4.55;;
20365;SDS011;10341;49.894;8.822;2024-03-17T04:52:48;5.90;;;4.07;;
20365;SDS011;10341;49.894;8.822;2024-03-17T04:58:07;7.82;;;4.40;;
20365;SDS011;10341;49.894;8.822;2024-03-17T05:03:27;6.90;;;5.10;;
20365;SDS011;10341;49.894;8.822;2024-03-17T05:08:47;6.40;;;4.15;;
20365;SDS011;10341;49.894;8.822;2024-03-17T05:14:06;7.47;;;5.18;;
20365;SDS011;10341;49.894;8.822;2024-03-17T05:24:45;9.32;;;5.93;;
20365;SDS011;10341;49.894;8.822;2024-03-17T05:35:27;8.18;;;5.30;;
20365;SDS011;10341;49.894;8.822;2024-03-17T05:41:00;10.48;;;4.82;;
20365;SDS011;10341;49.894;8.822;2024-03-17T05:46:21;6.22;;;4.53;;
20365;SDS011;10341;49.894;8.822;2024-03-17T05:56:59;7.78;;;4.55;;
20365;SDS011;10341;49.894;8.822;2024-03-17T06:02:22;7.05;;;4.25;;
20365;SDS011;10341;49.894;8.822;2024-03-17T06:07:42;7.50;;;4.72;;
20365;SDS011;10341;49.894;8.822;2024-03-17T06:13:04;8.27;;;4.97;;
20365;SDS011;10341;49.894;8.822;2024-03-17T06:18:24;8.65;;;4.75;;
20365;SDS011;10341;49.894;8.822;2024-03-17T06:29:03;8.15;;;4.72;;
20365;SDS011;10341;49.894;8.822;2024-03-17T06:34:21;6.43;;;4.50;;
20365;SDS011;10341;49.894;8.822;2024-03-17T06:39:40;7.00;;;4.25;;
20365;SDS011;10341;49.894;8.822;2024-03-17T06:45:00;8.70;;;4.97;;
20365;SDS011;10341;49.894;8.822;2024-03-17T06:50:19;8.48;;;5.28;;
20365;SDS011;10341;49.894;8.822;2024-03-17T06:55:38;8.73;;;6.05;;
20365;SDS011;10341;49.894;8.822;2024-03-17T07:00:58;8.50;;;5.37;;
20365;SDS011;10341;49.894;8.822;2024-03-17T07:06:19;7.93;;;5.28;;
20365;SDS011;10341;49.894;8.822;2024-03-17T07:11:38;7.53;;;4.90;;
20365;SDS011;10341;49.894;8.822;2024-03-17T07:16:58;8.23;;;5.03;;
20365;SDS011;10341;49.894;8.822;2024-03-17T07:22:17;8.93;;;5.53;;
20365;SDS011;10341;49.894;8.822;2024-03-17T07:27:36;6.57;;;4.60;;
20365;SDS011;10341;49.894;8.822;2024-03-17T07:32:57;7.45;;;4.75;;
20365;SDS011;10341;49.894;8.822;2024-03-17T07:43:56;6.63;;;4.03;;
20365;SDS011;10341;49.894;8.822;2024-03-17T07:54:35;5.57;;;3.42;;
20365;SDS011;10341;49.894;8.822;2024-03-17T07:59:55;5.65;;;3.85;;
20365;SDS011;10341;49.894;8.822;2024-03-17T08:05:15;4.43;;;3.75;;
20365;SDS011;10341;49.894;8.822;2024-03-17T08:10:37;5.47;;;3.78;;
20365;SDS011;10341;49.894;8.822;2024-03-17T08:15:57;5.90;;;3.42;;
20365;SDS011;10341;49.894;8.822;2024-03-17T08:21:18;5.65;;;3.35;;
20365;SDS011;10341;49.894;8.822;2024-03-17T08:26:38;4.80;;;2.60;;
20365;SDS011;10341;49.894;8.822;2024-03-17T08:31:59;4.20;;;2.50;;
20365;SDS011;10341;49.894;8.822;2024-03-17T08:37:18;2.85;;;2.40;;
20365;SDS011;10341;49.894;8.822;2024-03-17T08:42:38;2.47;;;2.08;;
20365;SDS011;10341;49.894;8.822;2024-03-17T08:47:58;3.05;;;2.20;;
20365;SDS011;10341;49.894;8.822;2024-03-17T08:58:37;4.00;;;2.40;;
20365;SDS011;10341;49.894;8.822;2024-03-17T09:03:57;4.43;;;2.10;;
20365;SDS011;10341;49.894;8.822;2024-03-17T09:09:20;2.72;;;2.20;;
20365;SDS011;10341;49.894;8.822;2024-03-17T09:14:40;3.25;;;2.33;;
20365;SDS011;10341;49.894;8.822;2024-03-17T09:19:59;4.93;;;2.85;;
20365;SDS011;10341;49.894;8.822;2024-03-17T09:25:19;2.53;;;2.25;;
20365;SDS011;10341;49.894;8.822;2024-03-17T09:36:05;3.47;;;2.10;;
20365;SDS011;10341;49.894;8.822;2024-03-17T09:41:26;5.13;;;2.47;;
20365;SDS011;10341;49.894;8.822;2024-03-17T09:46:47;4.72;;;2.53;;
20365;SDS011;10341;49.894;8.822;2024-03-17T09:57:37;6.05;;;2.75;;
20365;SDS011;10341;49.894;8.822;2024-03-17T10:02:57;4.82;;;2.67;;
20365;SDS011;10341;49.894;8.822;2024-03-17T10:08:22;5.93;;;2.83;;
20365;SDS011;10341;49.894;8.822;2024-03-17T10:13:44;4.78;;;2.78;;
20365;SDS011;10341;49.894;8.822;2024-03-17T10:19:11;4.97;;;2.95;;
20365;SDS011;10341;49.894;8.822;2024-03-17T10:24:34;4.40;;;2.95;;
20365;SDS011;10341;49.894;8.822;2024-03-17T10:29:53;3.50;;;3.00;;
20365;SDS011;10341;49.894;8.822;2024-03-17T10:40:51;3.75;;;2.35;;
20365;SDS011;10341;49.894;8.822;2024-03-17T10:46:11;5.27;;;2.80;;
20365;SDS011;10341;49.894;8.822;2024-03-17T10:51:33;4.07;;;2.70;;
20365;SDS011;10341;49.894;8.822;2024-03-17T10:56:53;4.68;;;2.70;;
20365;SDS011;10341;49.894;8.822;2024-03-17T11:02:17;3.22;;;2.67;;
20365;SDS011;10341;49.894;8.822;2024-03-17T11:07:43;3.67;;;2.55;;
20365;SDS011;10341;49.894;8.822;2024-03-17T11:13:05;2.85;;;2.20;;
20365;SDS011;10341;49.894;8.822;2024-03-17T11:18:41;3.40;;;2.35;;
20365;SDS011;10341;49.894;8.822;2024-03-17T11:24:01;3.15;;;2.10;;
20365;SDS011;10341;49.894;8.822;2024-03-17T11:29:26;3.83;;;2.42;;
20365;SDS011;10341;49.894;8.822;2024-03-17T11:34:47;2.97;;;2.50;;
20365;SDS011;10341;49.894;8.822;2024-03-17T11:40:21;4.97;;;2.70;;
20365;SDS011;10341;49.894;8.822;2024-03-17T11:45:44;4.70;;;3.00;;
20365;SDS011;10341;49.894;8.822;2024-03-17T11:51:04;4.25;;;2.72;;
20365;SDS011;10341;49.894;8.822;2024-03-17T11:56:24;4.40;;;2.60;;
20365;SDS011;10341;49.894;8.822;2024-03-17T12:01:48;3.55;;;2.63;;
20365;SDS011;10341;49.894;8.822;2024-03-17T12:07:13;3.22;;;2.40;;
20365;SDS011;10341;49.894;8.822;2024-03-17T12:12:34;3.88;;;2.33;;
20365;SDS011;10341;49.894;8.822;2024-03-17T12:17:57;4.35;;;2.92;;
20365;SDS011;10341;49.894;8.822;2024-03-17T12:23:20;5.25;;;2.75;;
20365;SDS011;10341;49.894;8.822;2024-03-17T12:28:40;5.53;;;3.20;;
20365;SDS011;10341;49.894;8.822;2024-03-17T12:33:59;3.50;;;2.03;;
20365;SDS011;10341;49.894;8.822;2024-03-17T12:39:23;3.83;;;2.40;;
20365;SDS011;10341;49.894;8.822;2024-03-17T12:44:50;3.20;;;2.55;;
20365;SDS011;10341;49.894;8.822;2024-03-17T12:50:11;2.85;;;2.22;;
20365;SDS011;10341;49.894;8.822;2024-03-17T12:55:33;3.67;;;2.80;;
20365;SDS011;10341;49.894;8.822;2024-03-17T13:01:12;5.10;;;2.78;;
20365;SDS011;10341;49.894;8.822;2024-03-17T13:06:32;4.82;;;2.88;;
20365;SDS011;10341;49.894;8.822;2024-03-17T13:11:52;4.68;;;2.85;;
20365;SDS011;10341;49.894;8.822;2024-03-17T13:17:12;2.85;;;2.60;;
20365;SDS011;10341;49.894;8.822;2024-03-17T13:22:38;4.72;;;3.50;;
20365;SDS011;10341;49.894;8.822;2024-03-17T13:27:59;4.43;;;3.15;;
20365;SDS011;10341;49.894;8.822;2024-03-17T13:38:39;5.70;;;3.10;;
20365;SDS011;10341;49.894;8.822;2024-03-17T13:43:58;5.38;;;3.10;;
20365;SDS011;10341;49.894;8.822;2024-03-17T13:49:18;5.70;;;3.78;;
20365;SDS011;10341;49.894;8.822;2024-03-17T13:54:37;6.57;;;3.88;;
20365;SDS011;10341;49.894;8.822;2024-03-17T13:59:56;5.95;;;3.70;;
20365;SDS011;10341;49.894;8.822;2024-03-17T14:05:17;5.85;;;3.42;;
20365;SDS011;10341;49.894;8.822;2024-03-17T14:10:37;4.88;;;3.50;;
20365;SDS011;10341;49.894;8.822;2024-03-17T14:15:57;7.65;;;3.83;;
20365;SDS011;10341;49.894;8.822;2024-03-17T14:26:36;6.63;;;3.65;;
20365;SDS011;10341;49.894;8.822;2024-03-17T14:31:56;6.03;;;4.07;;
20365;SDS011;10341;49.894;8.822;2024-03-17T14:37:15;6.65;;;3.67;;
20365;SDS011;10341;49.894;8.822;2024-03-17T14:42:35;5.93;;;3.55;;
20365;SDS011;10341;49.894;8.822;2024-03-17T14:47:54;5.43;;;3.55;;
20365;SDS011;10341;49.894;8.822;2024-03-17T14:53:14;4.28;;;3.13;;
20365;SDS011;10341;49.894;8.822;2024-03-17T14:58:34;5.93;;;3.40;;
20365;SDS011;10341;49.894;8.822;2024-03-17T15:03:54;6.47;;;3.70;;
20365;SDS011;10341;49.894;8.822;2024-03-17T15:09:14;5.47;;;3.50;;
20365;SDS011;10341;49.894;8.822;2024-03-17T15:14:37;4.63;;;2.97;;
20365;SDS011;10341;49.894;8.822;2024-03-17T15:19:56;4.88;;;3.13;;
20365;SDS011;10341;49.894;8.822;2024-03-17T15:25:15;6.47;;;3.60;;
20365;SDS011;10341;49.894;8.822;2024-03-17T15:30:35;5.68;;;3.63;;
20365;SDS011;10341;49.894;8.822;2024-03-17T15:35:56;6.10;;;3.90;;
20365;SDS011;10341;49.894;8.822;2024-03-17T15:41:15;5.72;;;3.97;;
20365;SDS011;10341;49.894;8.822;2024-03-17T15:46:34;5.93;;;3.78;;
20365;SDS011;10341;49.894;8.822;2024-03-17T15:51:53;5.65;;;3.20;;
20365;SDS011;10341;49.894;8.822;2024-03-17T15:57:13;4.43;;;3.38;;
20365;SDS011;10341;49.894;8.822;2024-03-17T16:02:33;4.85;;;3.17;;
20365;SDS011;10341;49.894;8.822;2024-03-17T16:07:55;4.68;;;3.03;;
20365;SDS011;10341;49.894;8.822;2024-03-17T16:13:17;6.43;;;3.20;;
20365;SDS011;10341;49.894;8.822;2024-03-17T16:18:40;5.18;;;3.10;;
20365;SDS011;10341;49.894;8.822;2024-03-17T16:24:01;5.75;;;3.58;;
20365;SDS011;10341;49.894;8.822;2024-03-17T16:29:26;6.20;;;3.97;;
20365;SDS011;10341;49.894;8.822;2024-03-17T16:40:05;6.50;;;4.20;;
20365;SDS011;10341;49.894;8.822;2024-03-17T16:45:27;6.35;;;3.95;;
20365;SDS011;10341;49.894;8.822;2024-03-17T16:50:47;5.63;;;4.05;;
20365;SDS011;10341;49.894;8.822;2024-03-17T16:56:06;6.75;;;4.63;;
20365;SDS011;10341;49.894;8.822;2024-03-17T17:01:26;6.70;;;3.85;;
20365;SDS011;10341;49.894;8.822;2024-03-17T17:06:46;5.75;;;3.92;;
20365;SDS011;10341;49.894;8.822;2024-03-17T17:12:06;7.78;;;4.50;;
20365;SDS011;10341;49.894;8.822;2024-03-17T17:17:26;12.40;;;4.97;;
20365;SDS011;10341;49.894;8.822;2024-03-17T17:22:45;9.45;;;5.10;;
20365;SDS011;10341;49.894;8.822;2024-03-17T17:28:05;12.52;;;7.20;;
20365;SDS011;10341;49.894;8.822;2024-03-17T17:33:25;5.68;;;3.90;;
20365;SDS011;10341;49.894;8.822;2024-03-17T17:38:44;7.43;;;3.67;;
20365;SDS011;10341;49.894;8.822;2024-03-17T17:44:03;5.47;;;3.20;;
20365;SDS011;10341;49.894;8.822;2024-03-17T17:49:23;7.15;;;3.60;;
20365;SDS011;10341;49.894;8.822;2024-03-17T17:54:42;8.48;;;4.57;;
20365;SDS011;10341;49.894;8.822;2024-03-17T18:00:02;7.63;;;4.50;;
20365;SDS011;10341;49.894;8.822;2024-03-17T18:05:25;6.50;;;4.18;;
20365;SDS011;10341;49.894;8.822;2024-03-17T18:10:47;7.63;;;4.00;;
20365;SDS011;10341;49.894;8.822;2024-03-17T18:16:07;4.72;;;3.10;;
20365;SDS011;10341;49.894;8.822;2024-03-17T18:21:27;5.38;;;2.85;;
20365;SDS011;10341;49.894;8.822;2024-03-17T18:26:46;4.78;;;2.80;;
20365;SDS011;10341;49.894;8.822;2024-03-17T18:32:06;3.30;;;2.55;;
20365;SDS011;10341;49.894;8.822;2024-03-17T18:37:25;3.97;;;2.47;;
20365;SDS011;10341;49.894;8.822;2024-03-17T18:42:46;4.13;;;2.60;;
20365;SDS011;10341;49.894;8.822;2024-03-17T18:48:08;3.47;;;2.65;;
20365;SDS011;10341;49.894;8.822;2024-03-17T18:53:28;6.18;;;3.28;;
20365;SDS011;10341;49.894;8.822;2024-03-17T19:04:08;3.72;;;2.40;;
20365;SDS011;10341;49.894;8.822;2024-03-17T19:09:27;5.28;;;3.10;;
20365;SDS011;10341;49.894;8.822;2024-03-17T19:14:48;4.25;;;2.85;;
20365;SDS011;10341;49.894;8.822;2024-03-17T19:20:10;5.40;;;2.40;;
20365;SDS011;10341;49.894;8.822;2024-03-17T19:25:32;4.85;;;2.60;;
20365;SDS011;10341;49.894;8.822;2024-03-17T19:30:54;3.67;;;2.70;;
20365;SDS011;10341;49.894;8.822;2024-03-17T19:36:16;6.03;;;2.67;;
20365;SDS011;10341;49.894;8.822;2024-03-17T19:41:36;3.72;;;2.63;;
20365;SDS011;10341;49.894;8.822;2024-03-17T19:52:16;3.22;;;1.92;;
20365;SDS011;10341;49.894;8.822;2024-03-17T19:57:37;3.65;;;2.40;;
20365;SDS011;10341;49.894;8.822;2024-03-17T20:02:56;3.30;;;2.40;;
20365;SDS011;10341;49.894;8.822;2024-03-17T20:08:17;3.83;;;2.50;;
20365;SDS011;10341;49.894;8.822;2024-03-17T20:13:36;5.75;;;2.95;;
20365;SDS011;10341;49.894;8.822;2024-03-17T20:18:56;6.35;;;3.65;;
20365;SDS011;10341;49.894;8.822;2024-03-17T20:24:15;4.18;;;2.50;;
20365;SDS011;10341;49.894;8.822;2024-03-17T20:29:35;3.20;;;2.42;;
20365;SDS011;10341;49.894;8.822;2024-03-17T20:34:54;3.42;;;2.67;;
20365;SDS011;10341;49.894;8.822;2024-03-17T20:40:15;3.83;;;2.47;;
20365;SDS011;10341;49.894;8.822;2024-03-17T20:45:36;5.72;;;3.40;;
20365;SDS011;10341;49.894;8.822;2024-03-17T20:50:56;3.90;;;2.80;;
20365;SDS011;10341;49.894;8.822;2024-03-17T20:56:16;4.47;;;2.67;;
20365;SDS011;10341;49.894;8.822;2024-03-17T21:01:36;3.30;;;2.67;;
20365;SDS011;10341;49.894;8.822;2024-03-17T21:06:55;5.47;;;2.77;;
20365;SDS011;10341;49.894;8.822;2024-03-17T21:12:17;6.60;;;3.25;;
20365;SDS011;10341;49.894;8.822;2024-03-17T21:17:37;5.95;;;3.78;;
20365;SDS011;10341;49.894;8.822;2024-03-17T21:22:56;5.37;;;3.00;;
20365;SDS011;10341;49.894;8.822;2024-03-17T21:28:17;6.65;;;3.85;;
20365;SDS011;10341;49.894;8.822;2024-03-17T21:33:37;10.93;;;6.30;;
20365;SDS011;10341;49.894;8.822;2024-03-17T21:38:56;5.13;;;3.05;;
20365;SDS011;10341;49.894;8.822;2024-03-17T21:44:16;4.10;;;3.00;;
20365;SDS011;10341;49.894;8.822;2024-03-17T21:49:35;5.82;;;3.22;;
20365;SDS011;10341;49.894;8.822;2024-03-17T21:54:54;4.05;;;2.70;;
20365;SDS011;10341;49.894;8.822;2024-03-17T22:00:13;7.77;;;5.00;;
20365;SDS011;10341;49.894;8.822;2024-03-17T22:05:34;5.95;;;3.53;;
20365;SDS011;10341;49.894;8.822;2024-03-17T22:10:53;6.17;;;3.67;;
20365;SDS011;10341;49.894;8.822;2024-03-17T22:16:14;4.15;;;3.42;;
20365;SDS011;10341;49.894;8.822;2024-03-17T22:21:33;5.70;;;3.40;;
20365;SDS011;10341;49.894;8.822;2024-03-17T22:26:52;7.33;;;3.90;;
20365;SDS011;10341;49.894;8.822;2024-03-17T22:32:11;8.13;;;4.00;;
20365;SDS011;10341;49.894;8.822;2024-03-17T22:37:31;6.57;;;4.35;;
20365;SDS011;10341;49.894;8.822;2024-03-17T22:42:50;6.80;;;4.00;;
20365;SDS011;10341;49.894;8.822;2024-03-17T22:48:09;8.50;;;4.23;;
20365;SDS011;10341;49.894;8.822;2024-03-17T22:53:28;9.85;;;6.20;;
20365;SDS011;10341;49.894;8.822;2024-03-17T22:58:48;10.05;;;5.70;;
20365;SDS011;10341;49.894;8.822;2024-03-17T23:04:07;8.45;;;5.10;;
20365;SDS011;10341;49.894;8.822;2024-03-17T23:09:27;8.85;;;5.28;;
20365;SDS011;10341;49.894;8.822;2024-03-17T23:14:47;10.10;;;7.30;;
20365;SDS011;10341;49.894;8.822;2024-03-17T23:20:06;11.90;;;7.43;;
20365;SDS011;10341;49.894;8.822;2024-03-17T23:25:31;9.23;;;5.90;;
20365;SDS011;10341;49.894;8.822;2024-03-17T23:30:50;12.32;;;7.78;;
20365;SDS011;10341;49.894;8.822;2024-03-17T23:36:10;12.32;;;7.28;;
20365;SDS011;10341;49.894;8.822;2024-03-17T23:41:29;6.43;;;4.55;;
20365;SDS011;10341;49.894;8.822;2024-03-17T23:46:48;9.07;;;4.77;;
20365;SDS011;10341;49.894;8.822;2024-03-17T23:52:08;5.38;;;4.30;;
20365;SDS011;10341;49.894;8.822;2024-03-17T23:57:28;7.68;;;4.82;;
